sensor_id;sensor_type;location;lat;lon;timestamp;P1;durP1;ratioP1;P2;durP2;ratioP2
5674;SDS011;2860;54.284;10.158;2023-07-24T00:02:15;15.68;;;10.32;;
5674;SDS011;2860;54.284;10.158;2023-07-24T00:04:40;17.13;;;11.50;;
5674;SDS011;2860;54.284;10.158;2023-07-24T00:07:06;15.90;;;11.20;;
5674;SDS011;2860;54.284;10.158;2023-07-24T00:09:31;16.80;;;11.48;;
5674;SDS011;2860;54.284;10.158;2023-07-24T00:11:57;17.98;;;11.48;;
5674;SDS011;2860;54.284;10.158;2023-07-24T00:14:22;15.50;;;11.63;;
5674;SDS011;2860;54.284;10.158;2023-07-24T00:16:48;16.35;;;11.38;;
5674;SDS011;2860;54.284;10.158;2023-07-24T00:19:14;20.55;;;11.85;;
5674;SDS011;2860;54.284;10.158;2023-07-24T00:21:39;12.85;;;11.32;;
5674;SDS011;2860;54.284;10.158;2023-07-24T00:24:05;12.93;;;11.32;;
5674;SDS011;2860;54.284;10.158;2023-07-24T00:26:30;21.73;;;10.90;;
5674;SDS011;2860;54.284;10.158;2023-07-24T00:28:56;24.73;;;12.05;;
5674;SDS011;2860;54.284;10.158;2023-07-24T00:31:21;16.83;;;12.57;;
5674;SDS011;2860;54.284;10.158;2023-07-24T00:33:47;16.35;;;11.40;;
5674;SDS011;2860;54.284;10.158;2023-07-24T00:36:12;18.45;;;11.95;;
5674;SDS011;2860;54.284;10.158;2023-07-24T00:38:38;25.02;;;12.38;;
5674;SDS011;2860;54.284;10.158;2023-07-24T00:41:04;20.90;;;12.10;;
5674;SDS011;2860;54.284;10.158;2023-07-24T00:43:29;15.40;;;11.73;;
5674;SDS011;2860;54.284;10.158;2023-07-24T00:45:56;18.05;;;12.02;;
5674;SDS011;2860;54.284;10.158;2023-07-24T00:48:22;19.63;;;13.65;;
5674;SDS011;2860;54.284;10.158;2023-07-24T00:50:48;16.60;;;12.63;;
5674;SDS011;2860;54.284;10.158;2023-07-24T00:53:15;20.15;;;13.55;;
5674;SDS011;2860;54.284;10.158;2023-07-24T00:55:42;27.52;;;12.93;;
5674;SDS011;2860;54.284;10.158;2023-07-24T00:58:09;16.95;;;11.70;;
5674;SDS011;2860;54.284;10.158;2023-07-24T01:00:37;14.60;;;11.88;;
5674;SDS011;2860;54.284;10.158;2023-07-24T01:03:03;23.27;;;12.35;;
5674;SDS011;2860;54.284;10.158;2023-07-24T01:05:29;16.08;;;12.27;;
5674;SDS011;2860;54.284;10.158;2023-07-24T01:07:55;24.08;;;12.90;;
5674;SDS011;2860;54.284;10.158;2023-07-24T01:10:21;17.55;;;13.27;;
5674;SDS011;2860;54.284;10.158;2023-07-24T01:18:01;21.20;;;13.52;;
5674;SDS011;2860;54.284;10.158;2023-07-24T01:20:32;29.73;;;12.80;;
5674;SDS011;2860;54.284;10.158;2023-07-24T01:26:03;19.80;;;13.05;;
5674;SDS011;2860;54.284;10.158;2023-07-24T01:28:30;22.48;;;13.63;;
5674;SDS011;2860;54.284;10.158;2023-07-24T01:30:56;25.85;;;13.20;;
5674;SDS011;2860;54.284;10.158;2023-07-24T01:33:22;19.35;;;13.05;;
5674;SDS011;2860;54.284;10.158;2023-07-24T01:35:49;27.77;;;13.23;;
5674;SDS011;2860;54.284;10.158;2023-07-24T01:38:18;25.02;;;13.73;;
5674;SDS011;2860;54.284;10.158;2023-07-24T01:40:44;19.67;;;11.60;;
5674;SDS011;2860;54.284;10.158;2023-07-24T01:43:10;25.73;;;12.43;;
5674;SDS011;2860;54.284;10.158;2023-07-24T01:45:36;26.98;;;14.57;;
5674;SDS011;2860;54.284;10.158;2023-07-24T01:48:03;22.05;;;13.60;;
5674;SDS011;2860;54.284;10.158;2023-07-24T01:50:29;29.13;;;13.38;;
5674;SDS011;2860;54.284;10.158;2023-07-24T01:52:54;24.90;;;13.15;;
5674;SDS011;2860;54.284;10.158;2023-07-24T01:55:20;20.13;;;12.98;;
5674;SDS011;2860;54.284;10.158;2023-07-24T01:57:45;21.77;;;13.90;;
5674;SDS011;2860;54.284;10.158;2023-07-24T02:00:11;25.10;;;13.30;;
5674;SDS011;2860;54.284;10.158;2023-07-24T02:02:37;24.65;;;12.68;;
5674;SDS011;2860;54.284;10.158;2023-07-24T02:05:02;21.10;;;12.75;;
5674;SDS011;2860;54.284;10.158;2023-07-24T02:07:28;27.83;;;14.10;;
5674;SDS011;2860;54.284;10.158;2023-07-24T02:09:55;25.40;;;13.32;;
5674;SDS011;2860;54.284;10.158;2023-07-24T02:12:20;25.40;;;13.73;;
5674;SDS011;2860;54.284;10.158;2023-07-24T02:14:46;30.05;;;13.73;;
5674;SDS011;2860;54.284;10.158;2023-07-24T02:17:14;31.73;;;15.43;;
5674;SDS011;2860;54.284;10.158;2023-07-24T02:19:40;25.58;;;16.05;;
5674;SDS011;2860;54.284;10.158;2023-07-24T02:22:06;34.40;;;15.43;;
5674;SDS011;2860;54.284;10.158;2023-07-24T02:24:32;27.45;;;14.20;;
5674;SDS011;2860;54.284;10.158;2023-07-24T02:26:57;31.23;;;15.57;;
5674;SDS011;2860;54.284;10.158;2023-07-24T02:29:23;37.15;;;14.93;;
5674;SDS011;2860;54.284;10.158;2023-07-24T02:34:15;30.63;;;13.98;;
5674;SDS011;2860;54.284;10.158;2023-07-24T02:36:40;26.33;;;14.98;;
5674;SDS011;2860;54.284;10.158;2023-07-24T02:39:06;26.52;;;14.15;;
5674;SDS011;2860;54.284;10.158;2023-07-24T02:41:32;26.63;;;13.77;;
5674;SDS011;2860;54.284;10.158;2023-07-24T02:43:57;29.55;;;14.73;;
5674;SDS011;2860;54.284;10.158;2023-07-24T02:46:23;28.63;;;14.93;;
5674;SDS011;2860;54.284;10.158;2023-07-24T02:48:49;27.63;;;16.42;;
5674;SDS011;2860;54.284;10.158;2023-07-24T02:51:16;33.67;;;15.25;;
5674;SDS011;2860;54.284;10.158;2023-07-24T02:53:41;29.85;;;14.40;;
5674;SDS011;2860;54.284;10.158;2023-07-24T02:56:07;23.08;;;14.90;;
5674;SDS011;2860;54.284;10.158;2023-07-24T02:58:32;28.42;;;15.13;;
5674;SDS011;2860;54.284;10.158;2023-07-24T03:01:04;31.38;;;14.35;;
5674;SDS011;2860;54.284;10.158;2023-07-24T03:03:31;20.80;;;15.27;;
5674;SDS011;2860;54.284;10.158;2023-07-24T03:06:00;22.40;;;14.35;;
5674;SDS011;2860;54.284;10.158;2023-07-24T03:08:25;23.13;;;13.75;;
5674;SDS011;2860;54.284;10.158;2023-07-24T03:10:51;19.23;;;14.38;;
5674;SDS011;2860;54.284;10.158;2023-07-24T03:13:17;23.17;;;14.07;;
5674;SDS011;2860;54.284;10.158;2023-07-24T03:15:42;29.63;;;15.57;;
5674;SDS011;2860;54.284;10.158;2023-07-24T03:18:08;24.58;;;14.00;;
5674;SDS011;2860;54.284;10.158;2023-07-24T03:20:33;27.60;;;14.63;;
5674;SDS011;2860;54.284;10.158;2023-07-24T03:22:59;27.55;;;14.63;;
5674;SDS011;2860;54.284;10.158;2023-07-24T03:25:24;29.70;;;14.27;;
5674;SDS011;2860;54.284;10.158;2023-07-24T03:27:50;23.55;;;14.40;;
5674;SDS011;2860;54.284;10.158;2023-07-24T03:30:15;25.00;;;15.18;;
5674;SDS011;2860;54.284;10.158;2023-07-24T03:32:41;22.30;;;14.15;;
5674;SDS011;2860;54.284;10.158;2023-07-24T03:35:07;17.08;;;14.38;;
5674;SDS011;2860;54.284;10.158;2023-07-24T03:37:34;25.75;;;13.68;;
5674;SDS011;2860;54.284;10.158;2023-07-24T03:40:00;29.02;;;14.07;;
5674;SDS011;2860;54.284;10.158;2023-07-24T03:42:26;23.95;;;14.18;;
5674;SDS011;2860;54.284;10.158;2023-07-24T03:44:53;21.45;;;13.45;;
5674;SDS011;2860;54.284;10.158;2023-07-24T03:47:19;22.08;;;13.27;;
5674;SDS011;2860;54.284;10.158;2023-07-24T03:49:44;22.52;;;14.38;;
5674;SDS011;2860;54.284;10.158;2023-07-24T03:52:10;21.13;;;13.93;;
5674;SDS011;2860;54.284;10.158;2023-07-24T03:54:35;25.55;;;14.10;;
5674;SDS011;2860;54.284;10.158;2023-07-24T03:57:01;27.52;;;12.85;;
5674;SDS011;2860;54.284;10.158;2023-07-24T03:59:27;20.42;;;13.52;;
5674;SDS011;2860;54.284;10.158;2023-07-24T04:01:52;18.02;;;13.30;;
5674;SDS011;2860;54.284;10.158;2023-07-24T04:04:18;15.43;;;12.77;;
5674;SDS011;2860;54.284;10.158;2023-07-24T04:06:43;21.70;;;14.23;;
5674;SDS011;2860;54.284;10.158;2023-07-24T04:09:11;20.00;;;13.50;;
5674;SDS011;2860;54.284;10.158;2023-07-24T04:11:39;18.40;;;13.40;;
5674;SDS011;2860;54.284;10.158;2023-07-24T04:14:08;17.92;;;14.07;;
5674;SDS011;2860;54.284;10.158;2023-07-24T04:16:33;16.55;;;13.52;;
5674;SDS011;2860;54.284;10.158;2023-07-24T04:18:59;23.33;;;13.63;;
5674;SDS011;2860;54.284;10.158;2023-07-24T04:21:24;19.27;;;14.55;;
5674;SDS011;2860;54.284;10.158;2023-07-24T04:23:50;16.88;;;13.27;;
5674;SDS011;2860;54.284;10.158;2023-07-24T04:26:15;20.50;;;12.50;;
5674;SDS011;2860;54.284;10.158;2023-07-24T04:28:41;21.17;;;12.57;;
5674;SDS011;2860;54.284;10.158;2023-07-24T04:31:06;21.98;;;13.90;;
5674;SDS011;2860;54.284;10.158;2023-07-24T04:33:32;16.40;;;13.75;;
5674;SDS011;2860;54.284;10.158;2023-07-24T04:35:57;22.00;;;13.65;;
5674;SDS011;2860;54.284;10.158;2023-07-24T04:38:23;18.20;;;13.38;;
5674;SDS011;2860;54.284;10.158;2023-07-24T04:40:48;23.17;;;12.82;;
5674;SDS011;2860;54.284;10.158;2023-07-24T04:43:14;16.00;;;12.57;;
5674;SDS011;2860;54.284;10.158;2023-07-24T04:45:39;17.58;;;12.30;;
5674;SDS011;2860;54.284;10.158;2023-07-24T04:48:05;19.52;;;13.18;;
5674;SDS011;2860;54.284;10.158;2023-07-24T04:50:30;18.98;;;12.65;;
5674;SDS011;2860;54.284;10.158;2023-07-24T04:52:57;23.60;;;13.40;;
5674;SDS011;2860;54.284;10.158;2023-07-24T04:55:22;21.35;;;12.85;;
5674;SDS011;2860;54.284;10.158;2023-07-24T04:57:48;16.58;;;12.20;;
5674;SDS011;2860;54.284;10.158;2023-07-24T05:00:14;18.15;;;12.13;;
5674;SDS011;2860;54.284;10.158;2023-07-24T05:02:39;18.45;;;11.73;;
5674;SDS011;2860;54.284;10.158;2023-07-24T05:05:05;19.50;;;12.43;;
5674;SDS011;2860;54.284;10.158;2023-07-24T05:07:31;21.40;;;12.45;;
5674;SDS011;2860;54.284;10.158;2023-07-24T05:09:57;21.92;;;13.00;;
5674;SDS011;2860;54.284;10.158;2023-07-24T05:12:22;18.10;;;12.52;;
5674;SDS011;2860;54.284;10.158;2023-07-24T05:14:48;12.38;;;11.23;;
5674;SDS011;2860;54.284;10.158;2023-07-24T05:17:14;22.15;;;12.07;;
5674;SDS011;2860;54.284;10.158;2023-07-24T05:19:39;17.02;;;13.02;;
5674;SDS011;2860;54.284;10.158;2023-07-24T05:22:05;14.60;;;11.48;;
5674;SDS011;2860;54.284;10.158;2023-07-24T05:24:30;12.48;;;11.07;;
5674;SDS011;2860;54.284;10.158;2023-07-24T05:26:56;20.23;;;11.32;;
5674;SDS011;2860;54.284;10.158;2023-07-24T05:29:21;14.93;;;11.40;;
5674;SDS011;2860;54.284;10.158;2023-07-24T05:31:47;19.20;;;11.02;;
5674;SDS011;2860;54.284;10.158;2023-07-24T05:34:13;13.40;;;10.23;;
5674;SDS011;2860;54.284;10.158;2023-07-24T05:36:39;13.43;;;11.43;;
5674;SDS011;2860;54.284;10.158;2023-07-24T05:39:05;20.17;;;11.40;;
5674;SDS011;2860;54.284;10.158;2023-07-24T05:41:31;12.68;;;11.20;;
5674;SDS011;2860;54.284;10.158;2023-07-24T05:43:56;18.77;;;9.93;;
5674;SDS011;2860;54.284;10.158;2023-07-24T05:46:22;12.00;;;9.93;;
5674;SDS011;2860;54.284;10.158;2023-07-24T05:48:47;12.90;;;9.85;;
5674;SDS011;2860;54.284;10.158;2023-07-24T05:51:13;13.60;;;10.15;;
5674;SDS011;2860;54.284;10.158;2023-07-24T05:53:38;18.55;;;11.48;;
5674;SDS011;2860;54.284;10.158;2023-07-24T05:56:04;13.98;;;11.10;;
5674;SDS011;2860;54.284;10.158;2023-07-24T05:58:29;15.30;;;11.20;;
5674;SDS011;2860;54.284;10.158;2023-07-24T06:00:55;12.48;;;10.60;;
5674;SDS011;2860;54.284;10.158;2023-07-24T06:03:21;12.90;;;11.30;;
5674;SDS011;2860;54.284;10.158;2023-07-24T06:05:51;16.42;;;9.75;;
5674;SDS011;2860;54.284;10.158;2023-07-24T06:08:18;14.85;;;10.48;;
5674;SDS011;2860;54.284;10.158;2023-07-24T06:10:45;11.52;;;9.60;;
5674;SDS011;2860;54.284;10.158;2023-07-24T06:13:12;10.43;;;9.43;;
5674;SDS011;2860;54.284;10.158;2023-07-24T06:15:37;11.45;;;9.63;;
5674;SDS011;2860;54.284;10.158;2023-07-24T06:18:03;16.17;;;9.43;;
5674;SDS011;2860;54.284;10.158;2023-07-24T06:20:28;12.30;;;10.40;;
5674;SDS011;2860;54.284;10.158;2023-07-24T06:22:54;9.48;;;8.55;;
5674;SDS011;2860;54.284;10.158;2023-07-24T06:25:19;10.82;;;8.43;;
5674;SDS011;2860;54.284;10.158;2023-07-24T06:27:45;11.93;;;8.20;;
5674;SDS011;2860;54.284;10.158;2023-07-24T06:30:10;10.68;;;8.05;;
5674;SDS011;2860;54.284;10.158;2023-07-24T06:32:36;9.05;;;8.13;;
5674;SDS011;2860;54.284;10.158;2023-07-24T06:35:01;8.60;;;7.88;;
5674;SDS011;2860;54.284;10.158;2023-07-24T06:37:27;18.25;;;8.40;;
5674;SDS011;2860;54.284;10.158;2023-07-24T06:39:55;16.88;;;8.65;;
5674;SDS011;2860;54.284;10.158;2023-07-24T06:42:21;9.55;;;8.77;;
5674;SDS011;2860;54.284;10.158;2023-07-24T06:44:46;10.38;;;8.38;;
5674;SDS011;2860;54.284;10.158;2023-07-24T06:47:12;8.10;;;7.47;;
5674;SDS011;2860;54.284;10.158;2023-07-24T06:49:37;8.57;;;7.78;;
5674;SDS011;2860;54.284;10.158;2023-07-24T06:52:03;9.15;;;8.38;;
5674;SDS011;2860;54.284;10.158;2023-07-24T06:54:29;11.45;;;7.75;;
5674;SDS011;2860;54.284;10.158;2023-07-24T06:56:54;12.20;;;8.57;;
5674;SDS011;2860;54.284;10.158;2023-07-24T06:59:20;9.18;;;8.25;;
5674;SDS011;2860;54.284;10.158;2023-07-24T07:01:45;8.43;;;7.60;;
5674;SDS011;2860;54.284;10.158;2023-07-24T07:04:10;11.80;;;7.22;;
5674;SDS011;2860;54.284;10.158;2023-07-24T07:06:36;8.00;;;7.32;;
5674;SDS011;2860;54.284;10.158;2023-07-24T07:09:01;7.70;;;7.05;;
5674;SDS011;2860;54.284;10.158;2023-07-24T07:11:28;11.30;;;8.50;;
5674;SDS011;2860;54.284;10.158;2023-07-24T07:13:53;16.05;;;8.75;;
5674;SDS011;2860;54.284;10.158;2023-07-24T07:16:19;8.85;;;7.88;;
5674;SDS011;2860;54.284;10.158;2023-07-24T07:18:47;9.90;;;9.20;;
5674;SDS011;2860;54.284;10.158;2023-07-24T07:21:12;11.55;;;10.43;;
5674;SDS011;2860;54.284;10.158;2023-07-24T07:23:38;11.05;;;9.93;;
5674;SDS011;2860;54.284;10.158;2023-07-24T07:26:03;10.88;;;9.95;;
5674;SDS011;2860;54.284;10.158;2023-07-24T07:28:29;10.02;;;9.23;;
5674;SDS011;2860;54.284;10.158;2023-07-24T07:30:54;13.05;;;10.10;;
5674;SDS011;2860;54.284;10.158;2023-07-24T07:33:20;10.27;;;9.38;;
5674;SDS011;2860;54.284;10.158;2023-07-24T07:35:49;11.15;;;9.85;;
5674;SDS011;2860;54.284;10.158;2023-07-24T07:38:15;11.90;;;10.75;;
5674;SDS011;2860;54.284;10.158;2023-07-24T07:40:40;11.07;;;10.07;;
5674;SDS011;2860;54.284;10.158;2023-07-24T07:43:06;11.45;;;10.32;;
5674;SDS011;2860;54.284;10.158;2023-07-24T07:45:32;11.18;;;10.23;;
5674;SDS011;2860;54.284;10.158;2023-07-24T07:47:57;19.10;;;11.00;;
5674;SDS011;2860;54.284;10.158;2023-07-24T07:50:23;10.73;;;9.95;;
5674;SDS011;2860;54.284;10.158;2023-07-24T07:52:51;11.40;;;9.93;;
5674;SDS011;2860;54.284;10.158;2023-07-24T07:55:17;16.33;;;9.57;;
5674;SDS011;2860;54.284;10.158;2023-07-24T07:57:44;12.27;;;11.07;;
5674;SDS011;2860;54.284;10.158;2023-07-24T08:00:10;12.05;;;10.25;;
5674;SDS011;2860;54.284;10.158;2023-07-24T08:02:36;10.80;;;9.85;;
5674;SDS011;2860;54.284;10.158;2023-07-24T08:05:08;11.68;;;10.70;;
5674;SDS011;2860;54.284;10.158;2023-07-24T08:07:34;11.18;;;10.10;;
5674;SDS011;2860;54.284;10.158;2023-07-24T08:10:00;11.40;;;10.00;;
5674;SDS011;2860;54.284;10.158;2023-07-24T08:12:26;12.02;;;10.85;;
5674;SDS011;2860;54.284;10.158;2023-07-24T08:14:52;11.02;;;9.88;;
5674;SDS011;2860;54.284;10.158;2023-07-24T08:17:17;11.75;;;10.70;;
5674;SDS011;2860;54.284;10.158;2023-07-24T08:19:43;13.40;;;11.35;;
5674;SDS011;2860;54.284;10.158;2023-07-24T08:22:08;13.13;;;10.80;;
5674;SDS011;2860;54.284;10.158;2023-07-24T08:24:34;13.23;;;9.73;;
5674;SDS011;2860;54.284;10.158;2023-07-24T08:27:00;11.80;;;10.80;;
5674;SDS011;2860;54.284;10.158;2023-07-24T08:29:26;12.18;;;11.02;;
5674;SDS011;2860;54.284;10.158;2023-07-24T08:31:52;13.52;;;11.50;;
5674;SDS011;2860;54.284;10.158;2023-07-24T08:34:17;15.50;;;11.27;;
5674;SDS011;2860;54.284;10.158;2023-07-24T08:36:43;12.27;;;11.38;;
5674;SDS011;2860;54.284;10.158;2023-07-24T08:39:08;11.68;;;10.68;;
5674;SDS011;2860;54.284;10.158;2023-07-24T08:41:34;13.45;;;12.13;;
5674;SDS011;2860;54.284;10.158;2023-07-24T08:44:01;13.93;;;11.05;;
5674;SDS011;2860;54.284;10.158;2023-07-24T08:46:27;12.30;;;11.00;;
5674;SDS011;2860;54.284;10.158;2023-07-24T08:48:52;12.25;;;11.15;;
5674;SDS011;2860;54.284;10.158;2023-07-24T08:51:19;12.45;;;11.32;;
5674;SDS011;2860;54.284;10.158;2023-07-24T08:53:46;12.93;;;11.10;;
5674;SDS011;2860;54.284;10.158;2023-07-24T08:56:13;11.07;;;10.20;;
5674;SDS011;2860;54.284;10.158;2023-07-24T08:58:39;11.63;;;10.30;;
5674;SDS011;2860;54.284;10.158;2023-07-24T09:01:05;28.20;;;12.63;;
5674;SDS011;2860;54.284;10.158;2023-07-24T09:03:32;11.13;;;9.40;;
5674;SDS011;2860;54.284;10.158;2023-07-24T09:05:58;13.68;;;9.30;;
5674;SDS011;2860;54.284;10.158;2023-07-24T09:08:39;10.60;;;9.07;;
5674;SDS011;2860;54.284;10.158;2023-07-24T09:11:06;9.65;;;8.85;;
5674;SDS011;2860;54.284;10.158;2023-07-24T09:13:33;14.07;;;9.32;;
5674;SDS011;2860;54.284;10.158;2023-07-24T09:16:00;13.02;;;9.98;;
5674;SDS011;2860;54.284;10.158;2023-07-24T09:18:26;10.38;;;9.40;;
5674;SDS011;2860;54.284;10.158;2023-07-24T09:21:07;10.05;;;9.20;;
5674;SDS011;2860;54.284;10.158;2023-07-24T09:23:33;11.25;;;9.38;;
5674;SDS011;2860;54.284;10.158;2023-07-24T09:25:59;9.20;;;8.60;;
5674;SDS011;2860;54.284;10.158;2023-07-24T09:28:31;11.48;;;10.20;;
5674;SDS011;2860;54.284;10.158;2023-07-24T09:30:58;10.27;;;9.48;;
5674;SDS011;2860;54.284;10.158;2023-07-24T09:33:41;10.23;;;9.23;;
5674;SDS011;2860;54.284;10.158;2023-07-24T09:36:08;11.13;;;10.02;;
5674;SDS011;2860;54.284;10.158;2023-07-24T09:38:36;10.55;;;9.60;;
5674;SDS011;2860;54.284;10.158;2023-07-24T09:41:03;10.27;;;9.48;;
5674;SDS011;2860;54.284;10.158;2023-07-24T09:43:30;9.00;;;8.27;;
5674;SDS011;2860;54.284;10.158;2023-07-24T09:45:56;12.30;;;8.50;;
5674;SDS011;2860;54.284;10.158;2023-07-24T09:48:26;15.40;;;12.68;;
5674;SDS011;2860;54.284;10.158;2023-07-24T09:50:59;9.23;;;8.27;;
5674;SDS011;2860;54.284;10.158;2023-07-24T09:56:04;9.20;;;8.10;;
5674;SDS011;2860;54.284;10.158;2023-07-24T09:58:33;7.40;;;6.90;;
5674;SDS011;2860;54.284;10.158;2023-07-24T10:00:59;7.30;;;6.90;;
5674;SDS011;2860;54.284;10.158;2023-07-24T10:03:31;9.13;;;7.22;;
5674;SDS011;2860;54.284;10.158;2023-07-24T10:06:03;9.85;;;7.40;;
5674;SDS011;2860;54.284;10.158;2023-07-24T10:08:29;7.90;;;6.80;;
5674;SDS011;2860;54.284;10.158;2023-07-24T10:10:55;9.18;;;6.55;;
5674;SDS011;2860;54.284;10.158;2023-07-24T10:13:25;7.45;;;6.85;;
5674;SDS011;2860;54.284;10.158;2023-07-24T10:15:52;10.70;;;7.28;;
5674;SDS011;2860;54.284;10.158;2023-07-24T10:18:24;8.48;;;6.50;;
5674;SDS011;2860;54.284;10.158;2023-07-24T10:21:01;7.78;;;7.18;;
5674;SDS011;2860;54.284;10.158;2023-07-24T10:23:27;6.57;;;6.15;;
5674;SDS011;2860;54.284;10.158;2023-07-24T10:25:52;6.68;;;6.18;;
5674;SDS011;2860;54.284;10.158;2023-07-24T10:28:18;10.18;;;6.68;;
5674;SDS011;2860;54.284;10.158;2023-07-24T10:30:44;6.65;;;6.13;;
5674;SDS011;2860;54.284;10.158;2023-07-24T10:33:10;7.38;;;6.63;;
5674;SDS011;2860;54.284;10.158;2023-07-24T10:35:42;6.30;;;5.70;;
5674;SDS011;2860;54.284;10.158;2023-07-24T10:38:39;6.40;;;5.90;;
5674;SDS011;2860;54.284;10.158;2023-07-24T10:41:06;7.55;;;6.22;;
5674;SDS011;2860;54.284;10.158;2023-07-24T10:43:43;6.55;;;5.95;;
5674;SDS011;2860;54.284;10.158;2023-07-24T10:46:10;5.68;;;5.40;;
5674;SDS011;2860;54.284;10.158;2023-07-24T10:48:36;6.10;;;5.55;;
5674;SDS011;2860;54.284;10.158;2023-07-24T10:51:09;6.78;;;6.13;;
5674;SDS011;2860;54.284;10.158;2023-07-24T10:53:36;5.85;;;5.35;;
5674;SDS011;2860;54.284;10.158;2023-07-24T10:56:06;6.00;;;5.32;;
5674;SDS011;2860;54.284;10.158;2023-07-24T10:58:32;6.22;;;5.82;;
5674;SDS011;2860;54.284;10.158;2023-07-24T11:00:57;6.78;;;5.22;;
5674;SDS011;2860;54.284;10.158;2023-07-24T11:03:24;5.65;;;5.05;;
5674;SDS011;2860;54.284;10.158;2023-07-24T11:05:50;6.28;;;5.72;;
5674;SDS011;2860;54.284;10.158;2023-07-24T11:08:17;6.78;;;5.40;;
5674;SDS011;2860;54.284;10.158;2023-07-24T11:10:48;6.18;;;5.03;;
5674;SDS011;2860;54.284;10.158;2023-07-24T11:13:15;6.38;;;5.90;;
5674;SDS011;2860;54.284;10.158;2023-07-24T11:15:42;6.00;;;5.63;;
5674;SDS011;2860;54.284;10.158;2023-07-24T11:18:10;6.95;;;6.05;;
5674;SDS011;2860;54.284;10.158;2023-07-24T11:20:49;12.80;;;5.38;;
5674;SDS011;2860;54.284;10.158;2023-07-24T11:23:16;4.88;;;4.55;;
5674;SDS011;2860;54.284;10.158;2023-07-24T11:25:42;5.57;;;4.95;;
5674;SDS011;2860;54.284;10.158;2023-07-24T11:28:10;8.32;;;6.47;;
5674;SDS011;2860;54.284;10.158;2023-07-24T11:30:37;5.95;;;5.25;;
5674;SDS011;2860;54.284;10.158;2023-07-24T11:33:03;5.00;;;4.80;;
5674;SDS011;2860;54.284;10.158;2023-07-24T11:35:31;6.25;;;5.75;;
5674;SDS011;2860;54.284;10.158;2023-07-24T11:38:00;7.80;;;4.82;;
5674;SDS011;2860;54.284;10.158;2023-07-24T11:40:39;6.28;;;5.72;;
5674;SDS011;2860;54.284;10.158;2023-07-24T11:43:06;5.13;;;4.85;;
5674;SDS011;2860;54.284;10.158;2023-07-24T11:45:46;7.55;;;4.75;;
5674;SDS011;2860;54.284;10.158;2023-07-24T11:48:22;4.43;;;4.20;;
5674;SDS011;2860;54.284;10.158;2023-07-24T11:50:50;4.95;;;4.55;;
5674;SDS011;2860;54.284;10.158;2023-07-24T11:55:52;4.22;;;3.92;;
5674;SDS011;2860;54.284;10.158;2023-07-24T11:58:19;5.63;;;4.47;;
5674;SDS011;2860;54.284;10.158;2023-07-24T12:00:46;4.20;;;4.00;;
5674;SDS011;2860;54.284;10.158;2023-07-24T12:03:13;6.10;;;4.28;;
5674;SDS011;2860;54.284;10.158;2023-07-24T12:05:40;5.57;;;5.20;;
5674;SDS011;2860;54.284;10.158;2023-07-24T12:08:06;7.07;;;5.68;;
5674;SDS011;2860;54.284;10.158;2023-07-24T12:10:35;6.75;;;6.32;;
5674;SDS011;2860;54.284;10.158;2023-07-24T12:13:04;6.95;;;6.25;;
5674;SDS011;2860;54.284;10.158;2023-07-24T12:15:30;6.75;;;6.35;;
5674;SDS011;2860;54.284;10.158;2023-07-24T12:17:56;6.82;;;6.32;;
5674;SDS011;2860;54.284;10.158;2023-07-24T12:20:22;9.73;;;6.25;;
5674;SDS011;2860;54.284;10.158;2023-07-24T12:22:48;6.18;;;5.68;;
5674;SDS011;2860;54.284;10.158;2023-07-24T12:25:14;7.18;;;5.75;;
5674;SDS011;2860;54.284;10.158;2023-07-24T12:27:40;6.03;;;5.63;;
5674;SDS011;2860;54.284;10.158;2023-07-24T12:30:06;4.88;;;4.68;;
5674;SDS011;2860;54.284;10.158;2023-07-24T12:32:32;4.18;;;4.05;;
5674;SDS011;2860;54.284;10.158;2023-07-24T12:34:58;4.97;;;4.65;;
5674;SDS011;2860;54.284;10.158;2023-07-24T12:37:23;5.30;;;4.90;;
5674;SDS011;2860;54.284;10.158;2023-07-24T12:39:49;5.82;;;5.53;;
5674;SDS011;2860;54.284;10.158;2023-07-24T12:42:15;5.95;;;5.20;;
5674;SDS011;2860;54.284;10.158;2023-07-24T12:44:41;9.55;;;5.35;;
5674;SDS011;2860;54.284;10.158;2023-07-24T12:47:07;5.38;;;5.07;;
5674;SDS011;2860;54.284;10.158;2023-07-24T12:49:33;5.50;;;4.97;;
5674;SDS011;2860;54.284;10.158;2023-07-24T12:51:59;7.35;;;5.50;;
5674;SDS011;2860;54.284;10.158;2023-07-24T12:54:25;6.32;;;5.70;;
5674;SDS011;2860;54.284;10.158;2023-07-24T12:56:50;5.53;;;5.13;;
5674;SDS011;2860;54.284;10.158;2023-07-24T12:59:17;4.82;;;4.53;;
5674;SDS011;2860;54.284;10.158;2023-07-24T13:01:42;4.97;;;4.53;;
5674;SDS011;2860;54.284;10.158;2023-07-24T13:04:08;5.18;;;4.80;;
5674;SDS011;2860;54.284;10.158;2023-07-24T13:06:34;5.57;;;5.05;;
5674;SDS011;2860;54.284;10.158;2023-07-24T13:09:00;5.18;;;4.78;;
5674;SDS011;2860;54.284;10.158;2023-07-24T13:11:25;5.45;;;5.00;;
5674;SDS011;2860;54.284;10.158;2023-07-24T13:13:53;7.20;;;5.47;;
5674;SDS011;2860;54.284;10.158;2023-07-24T13:16:18;4.40;;;4.20;;
5674;SDS011;2860;54.284;10.158;2023-07-24T13:18:44;7.20;;;4.53;;
5674;SDS011;2860;54.284;10.158;2023-07-24T13:21:09;5.90;;;5.38;;
5674;SDS011;2860;54.284;10.158;2023-07-24T13:23:35;5.20;;;4.57;;
5674;SDS011;2860;54.284;10.158;2023-07-24T13:26:01;4.75;;;4.28;;
5674;SDS011;2860;54.284;10.158;2023-07-24T13:28:27;4.93;;;4.20;;
5674;SDS011;2860;54.284;10.158;2023-07-24T13:30:52;7.50;;;6.75;;
5674;SDS011;2860;54.284;10.158;2023-07-24T13:33:18;4.00;;;3.83;;
5674;SDS011;2860;54.284;10.158;2023-07-24T13:35:44;12.30;;;9.35;;
5674;SDS011;2860;54.284;10.158;2023-07-24T13:38:09;3.72;;;3.63;;
5674;SDS011;2860;54.284;10.158;2023-07-24T13:40:35;3.80;;;3.60;;
5674;SDS011;2860;54.284;10.158;2023-07-24T13:43:01;4.60;;;4.30;;
5674;SDS011;2860;54.284;10.158;2023-07-24T13:45:27;4.15;;;3.97;;
5674;SDS011;2860;54.284;10.158;2023-07-24T13:47:53;3.40;;;3.20;;
5674;SDS011;2860;54.284;10.158;2023-07-24T13:50:19;3.75;;;3.58;;
5674;SDS011;2860;54.284;10.158;2023-07-24T13:52:45;3.35;;;2.92;;
5674;SDS011;2860;54.284;10.158;2023-07-24T13:55:10;3.85;;;3.55;;
5674;SDS011;2860;54.284;10.158;2023-07-24T13:57:36;2.92;;;2.83;;
5674;SDS011;2860;54.284;10.158;2023-07-24T14:00:01;3.15;;;2.70;;
5674;SDS011;2860;54.284;10.158;2023-07-24T14:02:27;3.10;;;2.83;;
5674;SDS011;2860;54.284;10.158;2023-07-24T14:04:52;3.22;;;2.85;;
5674;SDS011;2860;54.284;10.158;2023-07-24T14:07:18;2.92;;;2.70;;
5674;SDS011;2860;54.284;10.158;2023-07-24T14:09:44;3.17;;;2.67;;
5674;SDS011;2860;54.284;10.158;2023-07-24T14:12:10;3.17;;;2.97;;
5674;SDS011;2860;54.284;10.158;2023-07-24T14:14:36;2.75;;;2.65;;
5674;SDS011;2860;54.284;10.158;2023-07-24T14:17:01;3.75;;;3.17;;
5674;SDS011;2860;54.284;10.158;2023-07-24T14:19:27;3.38;;;3.10;;
5674;SDS011;2860;54.284;10.158;2023-07-24T14:21:53;6.07;;;2.85;;
5674;SDS011;2860;54.284;10.158;2023-07-24T14:24:18;2.72;;;2.63;;
5674;SDS011;2860;54.284;10.158;2023-07-24T14:26:44;3.10;;;3.00;;
5674;SDS011;2860;54.284;10.158;2023-07-24T14:29:10;4.63;;;3.42;;
5674;SDS011;2860;54.284;10.158;2023-07-24T14:31:36;5.18;;;3.58;;
5674;SDS011;2860;54.284;10.158;2023-07-24T14:34:11;5.30;;;3.03;;
5674;SDS011;2860;54.284;10.158;2023-07-24T14:36:38;3.63;;;3.33;;
5674;SDS011;2860;54.284;10.158;2023-07-24T14:39:04;3.10;;;2.90;;
5674;SDS011;2860;54.284;10.158;2023-07-24T14:41:29;3.90;;;3.60;;
5674;SDS011;2860;54.284;10.158;2023-07-24T14:43:55;4.10;;;3.13;;
5674;SDS011;2860;54.284;10.158;2023-07-24T14:46:20;2.97;;;2.88;;
5674;SDS011;2860;54.284;10.158;2023-07-24T14:48:46;3.30;;;3.05;;
5674;SDS011;2860;54.284;10.158;2023-07-24T14:51:12;2.38;;;2.28;;
5674;SDS011;2860;54.284;10.158;2023-07-24T14:53:37;3.38;;;3.17;;
5674;SDS011;2860;54.284;10.158;2023-07-24T14:56:03;4.32;;;2.72;;
5674;SDS011;2860;54.284;10.158;2023-07-24T14:58:29;2.75;;;2.55;;